createdAt,value
2018-10-11T00:32:47.896Z,101087.48
2018-10-11T00:35:16.550Z,101095.21
2018-10-11T00:37:45.536Z,101081.16
2018-10-11T00:40:14.878Z,101087.42
2018-10-11T00:42:43.485Z,101089.06
2018-10-11T00:45:12.472Z,101085.15
2018-10-11T00:47:41.092Z,101081.34
2018-10-11T00:50:10.126Z,101081.75
2018-10-11T00:52:38.765Z,101069.53
2018-10-11T00:55:07.465Z,101071.28
2018-10-11T00:57:36.156Z,101066.34
2018-10-11T01:00:04.966Z,101053.81
2018-10-11T01:02:33.619Z,101056.94
2018-10-11T01:05:02.371Z,101056.16
2018-10-11T01:07:30.953Z,101053.13
2018-10-11T01:09:59.509Z,101049.05
2018-10-11T01:12:28.029Z,101048.22
2018-10-11T01:14:57.150Z,101043.14
2018-10-11T01:17:25.680Z,101038.59
2018-10-11T01:19:54.290Z,101045.09
2018-10-11T01:22:22.906Z,101046.57
2018-10-11T01:24:51.521Z,101043.64
2018-10-11T01:27:20.231Z,101045.03
2018-10-11T01:29:48.850Z,101043.92
2018-10-11T01:32:17.329Z,101044.44
2018-10-11T01:34:45.856Z,101040.48
2018-10-11T01:37:14.451Z,101047.63
2018-10-11T01:39:43.055Z,101047.41
2018-10-11T01:42:11.580Z,101042.58
2018-10-11T01:44:40.545Z,101049.55
2018-10-11T01:47:09.601Z,101044.43
2018-10-11T01:49:38.206Z,101036.01
2018-10-11T01:52:06.846Z,101035.94
2018-10-11T01:54:35.470Z,101030.20
2018-10-11T01:57:04.182Z,101027.05
2018-10-11T01:59:32.856Z,101018.44
2018-10-11T02:02:01.471Z,101011.39
2018-10-11T02:04:30.281Z,101008.79
2018-10-11T02:06:59.487Z,101016.21
2018-10-11T02:09:28.250Z,101016.39
2018-10-11T02:11:56.979Z,101023.34
2018-10-11T02:14:25.603Z,101021.70
2018-10-11T02:16:54.467Z,101015.63
2018-10-11T02:19:24.130Z,101008.52
2018-10-11T02:21:52.685Z,101011.49
2018-10-11T02:24:22.100Z,101010.01
2018-10-11T02:26:51.145Z,101002.29
2018-10-11T02:29:20.197Z,100991.55
2018-10-11T02:31:48.868Z,100990.11
2018-10-11T02:34:17.326Z,100996.07
2018-10-11T02:36:45.984Z,100997.34
2018-10-11T02:39:14.615Z,101005.38
2018-10-11T02:41:43.185Z,100997.08
2018-10-11T02:44:11.713Z,101002.16
2018-10-11T02:46:40.366Z,101004.51
2018-10-11T02:49:09.715Z,101007.82
2018-10-11T02:51:38.262Z,101009.97
2018-10-11T02:54:07.237Z,101008.88
2018-10-11T02:56:35.835Z,101006.56
2018-10-11T02:59:15.680Z,101007.86
2018-10-11T03:01:44.300Z,101004.83
2018-10-11T03:04:12.986Z,101003.72
2018-10-11T03:06:42.045Z,100997.29
2018-10-11T03:09:10.741Z,100991.27
2018-10-11T03:11:40.085Z,100992.86
2018-10-11T03:14:08.621Z,100981.48
2018-10-11T03:16:37.282Z,100985.67
2018-10-11T03:19:05.890Z,100995.96
2018-10-11T03:21:34.628Z,100984.77
2018-10-11T03:24:04.157Z,100980.05
2018-10-11T03:26:33.571Z,100981.70
2018-10-11T03:29:02.318Z,100978.70
2018-10-11T03:31:31.090Z,100979.55
2018-10-11T03:33:59.625Z,100977.77
2018-10-11T03:36:29.408Z,100985.56
2018-10-11T03:38:57.941Z,100992.11
2018-10-11T03:41:26.632Z,100996.45
2018-10-11T03:43:55.236Z,101005.49
2018-10-11T03:46:23.833Z,101010.69
2018-10-11T03:48:52.950Z,101004.56
2018-10-11T03:51:22.416Z,101002.35
2018-10-11T03:53:50.982Z,100997.17
2018-10-11T03:56:19.475Z,100995.98
2018-10-11T03:58:48.621Z,101002.67
2018-10-11T04:01:17.270Z,101012.70
2018-10-11T04:03:45.930Z,101011.61
2018-10-11T04:06:14.570Z,101017.04
2018-10-11T04:08:43.328Z,101024.02
2018-10-11T04:11:12.050Z,101018.12
2018-10-11T04:13:41.555Z,101009.39
2018-10-11T04:16:10.291Z,101001.88
2018-10-11T04:18:40.515Z,101007.23
2018-10-11T04:21:09.377Z,101004.70
2018-10-11T04:23:37.948Z,101001.55
2018-10-11T04:26:06.770Z,101004.27
2018-10-11T04:28:35.295Z,100991.94
2018-10-11T04:31:04.161Z,100988.61
2018-10-11T04:33:32.736Z,100984.08
2018-10-11T04:36:02.065Z,100990.34
2018-10-11T04:38:30.719Z,100991.99
2018-10-11T04:40:59.446Z,100988.71
2018-10-11T04:43:28.090Z,100981.51
2018-10-11T04:45:56.674Z,100983.44
2018-10-11T04:48:25.385Z,100989.23
2018-10-11T04:50:53.966Z,100985.31
2018-10-11T04:53:23.606Z,100984.36
2018-10-11T04:55:52.216Z,100981.86
2018-10-11T04:58:21.509Z,100989.00
2018-10-11T05:00:50.080Z,100991.54
2018-10-11T05:03:18.691Z,100993.31
2018-10-11T05:05:47.297Z,100986.91
2018-10-11T05:08:15.922Z,100985.09
2018-10-11T05:10:44.762Z,100982.98
2018-10-11T05:13:13.829Z,100981.63
2018-10-11T05:15:43.931Z,100989.11
2018-10-11T05:18:17.120Z,100999.31
2018-10-11T05:20:46.010Z,101001.50
2018-10-11T05:23:14.586Z,101003.63
2018-10-11T05:25:43.390Z,101012.20
2018-10-11T05:28:12.216Z,101027.03
2018-10-11T05:30:44.381Z,101041.94
2018-10-11T05:33:13.751Z,101037.19
2018-10-11T05:35:43.140Z,101026.66
2018-10-11T05:38:11.788Z,101029.45
2018-10-11T05:40:40.989Z,101020.82
2018-10-11T05:43:10.821Z,101021.20
2018-10-11T05:45:39.924Z,101019.39
2018-10-11T05:48:08.589Z,101019.38
2018-10-11T05:50:37.285Z,101019.38
2018-10-11T05:53:06.355Z,101016.08
2018-10-11T05:55:35.070Z,101012.82
2018-10-11T05:58:04.238Z,101006.99
2018-10-11T06:00:33.020Z,101004.57
2018-10-11T06:03:03.226Z,101009.08
2018-10-11T06:05:32.792Z,101030.73
2018-10-11T06:08:02.695Z,101039.25
2018-10-11T06:10:33.395Z,101041.59
2018-10-11T06:13:02.352Z,101049.01
2018-10-11T06:15:30.984Z,101058.59
2018-10-11T06:18:00.606Z,101061.06
2018-10-11T06:20:29.381Z,101064.41
2018-10-11T06:22:58.024Z,101059.87
2018-10-11T06:25:26.582Z,101058.61
2018-10-11T06:27:55.195Z,101062.59
2018-10-11T06:30:24.929Z,101064.81
2018-10-11T06:32:53.832Z,101070.19
2018-10-11T06:35:22.644Z,101072.00
2018-10-11T06:37:51.989Z,101060.39
2018-10-11T06:40:20.641Z,101060.56
2018-10-11T06:42:50.497Z,101067.52
2018-10-11T06:45:19.786Z,101072.42
2018-10-11T06:47:53.098Z,101081.62
2018-10-11T06:50:21.822Z,101083.89
2018-10-11T06:52:51.264Z,101083.75
2018-10-11T06:55:20.476Z,101081.33
2018-10-11T06:57:49.059Z,101089.47
2018-10-11T07:00:17.675Z,101094.86
2018-10-11T07:02:46.353Z,101096.20
2018-10-11T07:05:14.994Z,101095.73
2018-10-11T07:07:44.237Z,101106.78
2018-10-11T07:10:12.752Z,101114.91
2018-10-11T07:12:41.446Z,101116.03
2018-10-11T07:15:10.215Z,101105.97
2018-10-11T07:17:38.831Z,101107.92
2018-10-11T07:20:07.425Z,101096.89
2018-10-11T07:22:36.145Z,101101.95
2018-10-11T07:25:04.757Z,101107.42
2018-10-11T07:27:33.330Z,101114.44
2018-10-11T07:30:01.966Z,101114.66
2018-10-11T07:32:30.537Z,101112.39
2018-10-11T07:34:59.134Z,101110.31
2018-10-11T07:37:28.359Z,101106.64
2018-10-11T07:39:56.956Z,101117.33
2018-10-11T07:42:25.947Z,101120.12
2018-10-11T07:44:54.544Z,101119.73
2018-10-11T07:47:23.795Z,101126.27
2018-10-11T07:49:52.335Z,101133.78
2018-10-11T07:52:20.981Z,101133.31
2018-10-11T07:54:49.554Z,101127.70
2018-10-11T07:57:18.125Z,101129.26
2018-10-11T07:59:46.755Z,101131.64
2018-10-11T08:02:15.336Z,101122.30
2018-10-11T08:04:43.916Z,101128.67
2018-10-11T08:07:12.582Z,101128.27
2018-10-11T08:09:41.134Z,101126.52
2018-10-11T08:12:10.586Z,101129.23
2018-10-11T08:14:39.216Z,101126.99
2018-10-11T08:17:08.787Z,101129.56
2018-10-11T08:19:37.340Z,101130.07
2018-10-11T08:22:05.952Z,101128.69
2018-10-11T08:24:34.674Z,101133.87
2018-10-11T08:27:03.325Z,101131.06
2018-10-11T08:29:32.681Z,101133.30
2018-10-11T08:32:01.256Z,101129.41
2018-10-11T08:34:29.951Z,101136.73
2018-10-11T08:36:58.635Z,101131.33
2018-10-11T08:39:27.252Z,101141.58
2018-10-11T08:41:56.550Z,101141.20
2018-10-11T08:44:25.187Z,101137.12
2018-10-11T08:46:54.354Z,101136.36
2018-10-11T08:51:50.600Z,101134.80
2018-10-11T08:54:55.702Z,101136.93
2018-10-11T08:57:24.834Z,101138.48
2018-10-11T08:59:53.222Z,101136.94
2018-10-11T09:02:21.831Z,101129.73
2018-10-11T09:04:50.426Z,101124.16
2018-10-11T09:07:19.071Z,101129.02
2018-10-11T09:09:53.561Z,101130.66
2018-10-11T09:12:16.421Z,101123.16
2018-10-11T09:14:46.024Z,101131.06
2018-10-11T09:17:14.672Z,101130.46
2018-10-11T09:19:43.289Z,101127.38
2018-10-11T09:22:11.884Z,101122.36
2018-10-11T09:24:40.562Z,101124.39
2018-10-11T09:27:09.125Z,101125.00
2018-10-11T09:29:37.664Z,101123.16
2018-10-11T09:32:06.343Z,101122.25
2018-10-11T09:34:34.944Z,101114.62
2018-10-11T09:37:03.507Z,101117.38
2018-10-11T09:39:32.052Z,101113.75
2018-10-11T09:42:00.675Z,101107.87
2018-10-11T09:44:29.322Z,101108.91
2018-10-11T09:46:57.824Z,101110.48
2018-10-11T09:49:27.288Z,101109.89
2018-10-11T09:51:55.981Z,101109.89
2018-10-11T09:54:24.663Z,101107.52
2018-10-11T09:57:30.234Z,101102.75
2018-10-11T09:59:59.741Z,101098.97
2018-10-11T10:02:29.055Z,101104.00
2018-10-11T10:04:59.217Z,101103.18
2018-10-11T10:07:27.889Z,101104.20
2018-10-11T10:09:57.551Z,101094.72
2018-10-11T10:12:26.605Z,101094.72
2018-10-11T10:14:56.026Z,101105.83
2018-10-11T10:17:24.696Z,101092.60
2018-10-11T10:19:55.280Z,101101.48
2018-10-11T10:22:25.149Z,101098.52
2018-10-11T10:24:53.890Z,101100.09
2018-10-11T10:27:22.713Z,101107.94
2018-10-11T10:29:51.694Z,101094.25
2018-10-11T10:32:21.231Z,101094.47
2018-10-11T10:34:49.891Z,101085.42
2018-10-11T10:37:19.178Z,101084.85
2018-10-11T10:39:48.509Z,101082.48
2018-10-11T10:42:17.093Z,101078.74
2018-10-11T10:44:45.781Z,101084.06
2018-10-11T10:47:14.339Z,101077.94
2018-10-11T10:49:42.894Z,101064.63
2018-10-11T10:52:11.643Z,101069.16
2018-10-11T10:54:40.181Z,101061.23
2018-10-11T10:57:09.024Z,101059.05
2018-10-11T10:59:37.569Z,101059.41
2018-10-11T11:02:06.579Z,101061.97
2018-10-11T11:04:35.208Z,101051.78
2018-10-11T11:07:04.414Z,101051.11
2018-10-11T11:09:33.049Z,101047.77
2018-10-11T11:12:01.734Z,101046.92
2018-10-11T11:14:30.950Z,101043.69
2018-10-11T11:16:59.461Z,101042.62
2018-10-11T11:19:28.205Z,101044.97
2018-10-11T11:21:57.676Z,101039.80
2018-10-11T11:24:26.490Z,101039.20
2018-10-11T11:26:56.134Z,101025.17
2018-10-11T11:29:24.830Z,101027.37
2018-10-11T11:31:53.433Z,101024.63
2018-10-11T11:34:22.228Z,101027.79
2018-10-11T11:36:50.854Z,101025.65
2018-10-11T11:39:19.477Z,101026.86
2018-10-11T11:41:48.064Z,101028.62
2018-10-11T11:44:16.699Z,101025.02
2018-10-11T11:46:45.354Z,101021.27
2018-10-11T11:49:13.974Z,101027.59
2018-10-11T11:51:42.671Z,101024.58
2018-10-11T11:54:16.301Z,101023.97
2018-10-11T11:56:45.716Z,101023.31
2018-10-11T11:59:14.268Z,101026.24
2018-10-11T12:01:44.137Z,101021.06
2018-10-11T12:04:12.735Z,101019.94
2018-10-11T12:06:41.421Z,101019.50
2018-10-11T12:09:11.754Z,101017.75
2018-10-11T12:11:40.492Z,101006.91
2018-10-11T12:14:09.634Z,101014.94
2018-10-11T12:16:39.266Z,101012.45
2018-10-11T12:19:09.399Z,101010.64
2018-10-11T12:21:38.922Z,101011.01
2018-10-11T12:24:08.049Z,101009.86
2018-10-11T12:26:36.607Z,101019.71
2018-10-11T12:29:05.521Z,101009.77
2018-10-11T12:31:34.180Z,101007.09
2018-10-11T12:34:02.942Z,101004.87
2018-10-11T12:36:31.673Z,101001.62
2018-10-11T12:39:00.411Z,100999.30
2018-10-11T12:41:29.331Z,100998.45
2018-10-11T12:43:57.964Z,100998.72
2018-10-11T12:46:26.541Z,101002.45
2018-10-11T12:48:55.170Z,101007.28
2018-10-11T12:51:23.805Z,101011.55
2018-10-11T12:53:52.366Z,101006.50
2018-10-11T12:56:21.200Z,101007.15
2018-10-11T12:58:49.784Z,101008.22
2018-10-11T13:01:20.468Z,101002.53
2018-10-11T13:03:47.775Z,101010.27
2018-10-11T13:06:16.375Z,101009.67
2018-10-11T13:08:45.039Z,101014.52
2018-10-11T13:11:13.587Z,101015.41
2018-10-11T13:13:45.769Z,101019.59
2018-10-11T13:16:10.917Z,101021.22
2018-10-11T13:18:39.619Z,101022.63
2018-10-11T13:21:08.205Z,101022.44
2018-10-11T13:23:37.281Z,101031.78
2018-10-11T13:26:05.933Z,101030.02
2018-10-11T13:28:35.104Z,101035.80
2018-10-11T13:31:03.655Z,101032.22
2018-10-11T13:33:32.279Z,101034.39
2018-10-11T13:36:00.994Z,101037.35
2018-10-11T13:38:29.998Z,101038.30
2018-10-11T13:41:02.268Z,101029.19
2018-10-11T13:43:27.927Z,101037.44
2018-10-11T13:45:59.020Z,101029.43
2018-10-11T13:48:25.388Z,101030.98
2018-10-11T13:50:54.029Z,101030.00
2018-10-11T13:53:24.739Z,101036.94
2018-10-11T13:55:54.896Z,101030.66
2018-10-11T13:58:20.723Z,101033.63
2018-10-11T14:00:49.240Z,101025.33
2018-10-11T14:03:17.840Z,101035.86
2018-10-11T14:05:47.051Z,101034.07
2018-10-11T14:08:15.763Z,101034.30
2018-10-11T14:10:44.465Z,101031.92
2018-10-11T14:13:15.773Z,101021.60
2018-10-11T14:15:42.521Z,101029.06
2018-10-11T14:18:12.646Z,101028.22
2018-10-11T14:20:39.931Z,101025.45
2018-10-11T14:23:08.657Z,101019.19
2018-10-11T14:25:37.783Z,101022.14
2018-10-11T14:28:06.729Z,101017.97
2018-10-11T14:30:36.060Z,101020.68
2018-10-11T14:33:04.692Z,101010.58
2018-10-11T14:35:33.455Z,101006.43
2018-10-11T14:38:02.134Z,101009.59
2018-10-11T14:40:31.718Z,101009.00
2018-10-11T14:43:01.241Z,101005.67
2018-10-11T14:45:31.048Z,100999.91
2018-10-11T14:48:00.070Z,100998.14
2018-10-11T14:50:28.944Z,100993.03
2018-10-11T14:52:57.617Z,100999.59
2018-10-11T14:55:26.532Z,100990.91
2018-10-11T14:57:55.764Z,100995.47
2018-10-11T15:00:24.384Z,100991.91
2018-10-11T15:02:53.058Z,100993.09
2018-10-11T15:05:22.035Z,100989.61
2018-10-11T15:07:50.782Z,100991.44
2018-10-11T15:10:19.939Z,100988.67
2018-10-11T15:12:48.553Z,100983.72
2018-10-11T15:15:17.248Z,100992.42
2018-10-11T15:17:46.015Z,100988.26
2018-10-11T15:20:14.642Z,100985.26
2018-10-11T15:22:43.772Z,100982.49
2018-10-11T15:25:12.402Z,100979.29
2018-10-11T15:27:41.303Z,100984.77
2018-10-11T15:30:10.089Z,100985.95
2018-10-11T15:32:38.933Z,100985.66
2018-10-11T15:35:07.685Z,100981.72
2018-10-11T15:37:36.234Z,100986.98
2018-10-11T15:40:04.974Z,100982.95
2018-10-11T15:42:34.332Z,100980.55
2018-10-11T15:45:03.024Z,100985.65
2018-10-11T15:47:31.926Z,100986.95
2018-10-11T15:55:11.739Z,100991.95
2018-10-11T15:57:41.695Z,100989.37
2018-10-11T16:00:10.945Z,100988.18
2018-10-11T16:02:39.803Z,100987.93
2018-10-11T16:05:08.709Z,100993.44
2018-10-11T16:07:37.634Z,100993.24
2018-10-11T16:10:06.673Z,100988.44
2018-10-11T16:12:35.404Z,100993.98
2018-10-11T16:15:04.048Z,101001.69
2018-10-11T16:17:32.869Z,100998.32
2018-10-11T16:20:01.643Z,101003.07
2018-10-11T16:22:30.488Z,101003.05
2018-10-11T16:24:59.063Z,101003.55
2018-10-11T16:27:27.752Z,101007.24
2018-10-11T16:29:56.532Z,100996.39
2018-10-11T16:32:25.069Z,101005.17
2018-10-11T16:34:53.904Z,101012.34
2018-10-11T16:37:22.759Z,101010.96
2018-10-11T16:39:51.426Z,101012.72
2018-10-11T16:42:20.122Z,101012.52
2018-10-11T16:44:48.831Z,101017.03
2018-10-11T16:47:17.488Z,101019.00
2018-10-11T16:49:46.301Z,101019.81
2018-10-11T16:52:14.959Z,101025.28
2018-10-11T16:54:44.819Z,101027.61
2018-10-11T16:57:15.454Z,101037.13
2018-10-11T16:59:44.653Z,101038.13
2018-10-11T17:02:13.529Z,101041.96
2018-10-11T17:04:42.153Z,101048.30
2018-10-11T17:07:10.869Z,101051.13
2018-10-11T17:09:40.109Z,101065.45
2018-10-11T17:12:08.885Z,101069.39
2018-10-11T17:14:37.516Z,101065.56
2018-10-11T17:17:06.192Z,101065.14
2018-10-11T17:19:34.794Z,101072.15
2018-10-11T17:22:03.564Z,101065.02
2018-10-11T17:24:32.548Z,101075.69
2018-10-11T17:27:02.134Z,101075.38
2018-10-11T17:29:30.749Z,101071.86
2018-10-11T17:31:59.617Z,101074.31
2018-10-11T17:34:28.267Z,101085.59
2018-10-11T17:36:56.889Z,101085.89
2018-10-11T17:39:25.452Z,101084.73
2018-10-11T17:41:54.035Z,101087.06
2018-10-11T17:44:22.609Z,101092.00
2018-10-11T17:46:51.199Z,101091.63
2018-10-11T17:49:20.010Z,101095.27
2018-10-11T17:51:48.704Z,101099.16
2018-10-11T17:54:18.142Z,101108.77
2018-10-11T17:56:46.807Z,101108.73
2018-10-11T17:59:16.175Z,101113.56
2018-10-11T18:01:45.551Z,101118.11
2018-10-11T18:04:14.135Z,101124.23
2018-10-11T18:06:42.762Z,101110.98
2018-10-11T18:09:12.020Z,101117.66
2018-10-11T18:11:41.950Z,101122.03
2018-10-11T18:14:11.872Z,101121.05
2018-10-11T18:16:40.983Z,101119.48
2018-10-11T18:19:09.739Z,101111.31
2018-10-11T18:21:38.659Z,101115.27
2018-10-11T18:24:07.414Z,101117.30
2018-10-11T18:26:36.423Z,101113.00
2018-10-11T18:29:05.046Z,101119.97
2018-10-11T18:31:33.607Z,101123.25
2018-10-11T18:34:02.274Z,101123.12
2018-10-11T18:36:31.555Z,101118.78
2018-10-11T18:39:01.179Z,101125.82
2018-10-11T18:41:30.162Z,101125.16
2018-10-11T18:43:58.893Z,101119.81
2018-10-11T18:46:28.382Z,101129.21
2018-10-11T18:48:58.035Z,101127.33
2018-10-11T18:51:26.709Z,101133.84
2018-10-11T18:53:55.340Z,101143.84
2018-10-11T18:56:24.038Z,101136.96
2018-10-11T18:58:52.724Z,101137.12
2018-10-11T19:01:21.505Z,101138.86
2018-10-11T19:03:50.204Z,101141.61
2018-10-11T19:06:18.909Z,101138.21
2018-10-11T19:08:47.718Z,101134.67
2018-10-11T19:11:16.589Z,101132.44
2018-10-11T19:13:45.282Z,101135.83
2018-10-11T19:16:13.889Z,101134.87
2018-10-11T19:18:42.455Z,101136.61
2018-10-11T19:21:11.083Z,101143.00
2018-10-11T19:23:39.688Z,101141.69
2018-10-11T19:26:08.568Z,101142.03
2018-10-11T19:28:37.155Z,101146.62
2018-10-11T19:31:06.099Z,101138.70
2018-10-11T19:33:34.699Z,101138.36
2018-10-11T19:36:03.383Z,101136.53
2018-10-11T19:38:31.960Z,101141.48
2018-10-11T19:41:01.248Z,101134.45
2018-10-11T19:43:30.110Z,101128.50
2018-10-11T19:45:59.437Z,101129.36
2018-10-11T19:48:28.324Z,101120.95
2018-10-11T19:50:56.889Z,101129.45
2018-10-11T19:53:25.637Z,101130.52
2018-10-11T19:55:54.275Z,101130.52
2018-10-11T19:58:23.329Z,101135.44
2018-10-11T20:00:52.038Z,101134.95
2018-10-11T20:03:20.764Z,101137.94
2018-10-11T20:05:49.917Z,101140.46
2018-10-11T20:08:18.625Z,101141.68
2018-10-11T20:10:47.336Z,101152.59
2018-10-11T20:13:16.414Z,101147.53
2018-10-11T20:15:45.077Z,101153.13
2018-10-11T20:18:13.967Z,101154.66
2018-10-11T20:20:42.580Z,101157.16
2018-10-11T20:23:11.184Z,101158.89
2018-10-11T20:25:39.761Z,101142.19
2018-10-11T20:28:08.308Z,101150.06
2018-10-11T20:30:36.932Z,101150.80
2018-10-11T20:33:05.623Z,101149.80
2018-10-11T20:35:34.198Z,101146.55
2018-10-11T20:38:02.783Z,101150.00
2018-10-11T20:40:31.610Z,101144.63
2018-10-11T20:43:00.315Z,101145.75
2018-10-11T20:45:28.983Z,101146.45
2018-10-11T20:47:58.385Z,101145.75
2018-10-11T20:50:26.963Z,101144.86
2018-10-11T20:52:56.259Z,101143.91
2018-10-11T20:55:25.666Z,101146.02
2018-10-11T20:57:54.315Z,101151.25
2018-10-11T21:00:23.012Z,101148.96
2018-10-11T21:02:52.274Z,101152.63
2018-10-11T21:05:21.562Z,101151.58
2018-10-11T21:07:50.148Z,101146.23
2018-10-11T21:10:18.830Z,101147.61
2018-10-11T21:12:47.557Z,101155.48
2018-10-11T21:15:16.231Z,101160.08
2018-10-11T21:17:44.867Z,101161.19
2018-10-11T21:20:14.126Z,101164.20
2018-10-11T21:22:43.204Z,101167.62
2018-10-11T21:25:12.516Z,101163.21
2018-10-11T21:27:41.802Z,101166.42
2018-10-11T21:30:11.369Z,101156.70
2018-10-11T21:32:40.027Z,101156.13
2018-10-11T21:35:09.614Z,101158.37
2018-10-11T21:37:38.394Z,101144.69
2018-10-11T21:40:07.228Z,101149.34
2018-10-11T21:42:35.808Z,101140.31
2018-10-11T21:45:04.447Z,101143.55
2018-10-11T21:47:33.089Z,101144.97
2018-10-11T21:50:01.879Z,101143.59
2018-10-11T21:52:30.424Z,101135.14
2018-10-11T21:54:58.964Z,101129.58
2018-10-11T21:57:27.479Z,101130.85
2018-10-11T21:59:56.130Z,101128.67
2018-10-11T22:02:24.829Z,101122.16
2018-10-11T22:04:53.594Z,101125.09
2018-10-11T22:07:22.254Z,101122.49
2018-10-11T22:09:51.703Z,101122.03
2018-10-11T22:12:20.847Z,101116.36
2018-10-11T22:14:49.733Z,101121.73
2018-10-11T22:17:18.169Z,101125.17
2018-10-11T22:19:46.772Z,101124.48
2018-10-11T22:22:15.342Z,101129.69
2018-10-11T22:24:44.678Z,101128.72
2018-10-11T22:27:13.282Z,101129.04
2018-10-11T22:29:42.137Z,101135.00
2018-10-11T22:32:11.491Z,101144.39
2018-10-11T22:34:40.150Z,101144.23
2018-10-11T22:37:09.006Z,101155.16
2018-10-11T22:39:37.664Z,101156.25
2018-10-11T22:42:06.384Z,101168.70
2018-10-11T22:44:35.274Z,101171.80
2018-10-11T22:47:03.874Z,101174.45
2018-10-11T22:49:34.348Z,101185.05
2018-10-11T22:52:03.119Z,101189.80
2018-10-11T22:54:32.195Z,101191.43
2018-10-11T22:57:00.804Z,101193.63
2018-10-11T22:59:29.828Z,101203.67
2018-10-11T23:01:58.438Z,101206.94
2018-10-11T23:04:27.011Z,101209.00
2018-10-11T23:06:55.592Z,101209.77
2018-10-11T23:09:24.238Z,101212.89
2018-10-11T23:11:53.019Z,101219.45
2018-10-11T23:14:21.603Z,101220.00
2018-10-11T23:16:50.148Z,101223.93
2018-10-11T23:19:18.673Z,101225.66
2018-10-11T23:21:47.203Z,101236.31
2018-10-11T23:24:15.757Z,101235.52
2018-10-11T23:26:44.301Z,101235.76
2018-10-11T23:29:12.973Z,101242.73
2018-10-11T23:31:41.561Z,101246.14
2018-10-11T23:34:10.122Z,101253.30
2018-10-11T23:36:38.677Z,101255.08
2018-10-11T23:39:09.485Z,101252.42
2018-10-11T23:41:38.012Z,101257.83
2018-10-11T23:44:06.761Z,101255.30
2018-10-11T23:46:35.471Z,101249.23
2018-10-11T23:49:04.104Z,101243.42
2018-10-11T23:51:32.696Z,101239.07
2018-10-11T23:54:01.262Z,101237.08
2018-10-11T23:56:30.485Z,101236.78
2018-10-11T23:58:59.140Z,101235.29
